Bookmark and Share
Track history (hours):
 

Oceanographic research ship Oscar Dyson (USA)

Ship's website: http://www.moc.noaa.gov/od/

Detailed information on ship capabilities available from University of Delaware's Ocean Information Center and ARCUS's ALIAS (Arctic Logistics Information and Support) project.

Last reported at 2014-Apr-24 00:00 UTC. Time now 2014-Apr-24 02:17 UTC.
Position N 60°36' W 177°24'.

Type: Ship. MMSI: 369959000.

Wind from 060 at 15 knots

Barometer 1003.6 mb
Air temperature 0.4 ° C
Dewpoint -0.1 ° C
Water temperature -1.4 ° C

NotesDate/timePositionNaut miles runAvg speedWind from/ knotsBaromVisibWave heightAir tempDewpointWater temp
2014-Apr-24 00:00N 60°36' W 177°24'0 0.0 060 / 151003.6 0.4-0.1-1.4
2014-Apr-23 23:00N 60°36' W 177°24'0 0.0 070 / 141003.6 0.3-0.1-1.4
2014-Apr-23 22:00N 60°36' W 177°24'3 2.9 080 / 121003.4 -0.1-0.3-1.3
2014-Apr-23 21:00N 60°36' W 177°18'0 0.0 070 / 161003.3 -0.3-0.6-1.2
2014-Apr-23 19:00N 60°36' W 177°18'6 6.0 080 / 161002.6 -0.2-0.5-1.2
2014-Apr-23 18:00N 60°30' W 177°18'6 3.0 080 / 161001.9 5.435.0 1.0-0.2-1.4
2014-Apr-23 16:00N 60°36' W 177°18'7 6.7 060 / 161001.4 -0.5-0.7-1.2
2014-Apr-23 15:00N 60°30' W 177°12'6 6.0 060 / 171001.0 2.2 0.5 0.2-0.8-1.2
2014-Apr-23 14:00N 60°36' W 177°12'3 2.9 060 / 131000.8 -0.4-0.7-1.1
2014-Apr-23 13:00N 60°36' W 177°18'3 2.9 060 / 121000.8 -0.6-0.9-1.3
2014-Apr-23 12:00N 60°36' W 177°12'0 0.0 080 / 181000.3 1.135.0 1.2-0.0-1.2
2014-Apr-23 11:00N 60°36' W 177°12'0 0.0 070 / 181000.0 -0.4-0.7-1.1
2014-Apr-23 10:00N 60°36' W 177°12'3 1.5 070 / 20999.7 -0.5-0.8-1.1
2014-Apr-23 08:00N 60°36' W 177°18'8 4.2 060 / 18999.1 -0.4-0.7-1.2
2014-Apr-23 06:00N 60°30' W 177°06'6 5.9 070 / 19998.2 5.4 -0.4 -1.2
2014-Apr-23 05:00N 60°30' W 177°18'0 0.0 080 / 19997.5 -0.5-0.8-1.4
2014-Apr-23 04:00N 60°30' W 177°18'3 3.0 070 / 14997.5 -0.5-0.9-1.4
2014-Apr-23 03:00N 60°30' W 177°24'7 3.3 080 / 17997.0 2.2 1.0-0.5-0.9-1.3
2014-Apr-23 01:00N 60°24' W 177°30'3 1.5 070 / 17996.9 -0.5-1.1-1.2
2014-Apr-22 23:00N 60°24' W 177°36'3 3.0 060 / 18996.6 -0.2-0.7-1.1
2014-Apr-22 22:00N 60°24' W 177°42'7 6.7 070 / 21996.1 -0.4-0.8-0.8
2014-Apr-22 21:00N 60°18' W 177°36'3 3.0 070 / 22995.9 5.4 1.0-0.4-0.9-0.7
2014-Apr-22 20:00N 60°18' W 177°42'7 6.7 070 / 20995.6 -0.3-0.7-0.1
2014-Apr-22 19:00N 60°12' W 177°36'3 3.0 070 / 23994.7 -0.1-0.7 0.3
2014-Apr-22 18:00N 60°12' W 177°42'9 4.5 060 / 24994.8 -0.1-0.7 0.4
2014-Apr-22 16:00N 60°12' W 178°00'7 2.2 040 / 26995.5 -0.8-1.5 0.6
2014-Apr-22 13:00N 60°18' W 178°06'3 1.5 060 / 27996.3 -1.0-1.4 0.6
2014-Apr-22 11:00N 60°18' W 178°00'0 0.0 040 / 24997.5 -0.9-1.4 0.7
2014-Apr-22 10:00N 60°18' W 178°00'0 0.0 050 / 24998.0 -1.5-1.9 0.5
2014-Apr-22 09:00N 60°18' W 178°00'3 3.0 050 / 24998.3 -1.4-1.9 0.6
2014-Apr-22 08:00N 60°18' W 177°54'12 4.0 040 / 23998.2 -1.6-2.2 0.5
2014-Apr-22 05:00N 60°18' W 178°18'3 1.5 050 / 29998.6 -1.7-2.7 0.6
2014-Apr-22 03:00N 60°18' W 178°24'0 0.0 050 / 29999.5 -2.2-2.9 1.0
2014-Apr-22 02:00N 60°18' W 178°24'0 0.0 040 / 32999.3 -2.2-3.0 1.0
2014-Apr-22 01:00N 60°18' W 178°24'3 3.0 060 / 291000.4 -2.5-3.2 1.0
2014-Apr-22 00:00N 60°18' W 178°18'0 0.0 050 / 261001.3 5.425.0-2.6-3.3 0.8
2014-Apr-21 23:00N 60°18' W 178°18'3 3.0 040 / 281002.3 -2.7-3.4 0.7
2014-Apr-21 22:00N 60°18' W 178°12'6 6.0 050 / 261002.8 -2.9-3.6 0.6
2014-Apr-21 21:00N 60°12' W 178°12'7 2.2 060 / 291002.6 5.435.0-3.0 0.8
2014-Apr-21 18:00N 60°18' W 178°06'0 0.0 040 / 241005.2 5.435.0-3.5-4.6 0.4
2014-Apr-21 17:00N 60°18' W 178°06'0 0.0 060 / 291005.4 -4.0-4.9 0.4
2014-Apr-21 16:00N 60°18' W 178°06'0 0.0 040 / 291005.6 -3.7-4.3 0.6
2014-Apr-21 15:00N 60°18' W 178°06'0 0.0 060 / 301005.5 2.2 1.0-3.6-4.1 0.6
2014-Apr-21 14:00N 60°18' W 178°06'0 0.0 050 / 261007.0 -3.6-4.2 0.6
2014-Apr-21 13:00N 60°18' W 178°06'0 0.0 040 / 261008.2 -3.6-4.3 0.6
2014-Apr-21 11:00N 60°18' W 178°06'0 0.0 050 / 251009.2 -2.6-3.5 0.6
2014-Apr-21 10:00N 60°18' W 178°06'7 6.7 050 / 241009.9 -2.4-3.2 0.6
2014-Apr-21 09:00N 60°12' W 178°00'7 6.7 060 / 221010.8 5.435.0-2.1-3.0 0.4
2014-Apr-21 08:00N 60°18' W 178°06'3 3.0 050 / 221010.6 -2.1-2.9 0.5
2014-Apr-21 07:00N 60°18' W 178°00'6 6.0 040 / 251010.2 -1.9-2.8 0.3
2014-Apr-21 06:00N 60°24' W 178°00'0 0.0 040 / 201010.9 -2.2-3.2-0.2
2014-Apr-21 05:00N 60°24' W 178°00'3 1.0 050 / 181012.0 -2.1-3.0-0.2
2014-Apr-21 02:00N 60°24' W 177°54'0 0.0 040 / 151013.2 -3.0-3.9-0.4
2014-Apr-21 01:00N 60°24' W 177°54'0 0.0 030 / 141013.8 -3.2-4.3-0.4
2014-Apr-20 23:00N 60°24' W 177°54'3 3.0 010 / 121014.9 -4.6-5.8-0.3
2014-Apr-20 22:00N 60°24' W 177°48'0 0.0 020 / 111014.9 -4.9-6.3-0.4
2014-Apr-20 21:00N 60°24' W 177°48'6 3.0 020 / 131014.6 -5.6-6.8-0.6
2014-Apr-20 19:00N 60°18' W 177°48'7 6.7 010 / 131014.6 -5.9-6.7-0.6
2014-Apr-20 18:00N 60°12' W 177°42'7 6.7 010 / 141014.5 5.4 -5.2 -0.1
2014-Apr-20 17:00N 60°18' W 177°48'3 1.5 1014.4 -5.2-6.3-0.3
2014-Apr-20 15:00N 60°18' W 177°42'6 3.0 340 / 171013.9 -5.8-7.0-0.6
2014-Apr-20 13:00N 60°24' W 177°42'6 6.0 360 / 181013.4 -6.0-7.2-0.6
2014-Apr-20 12:00N 60°18' W 177°42'6 6.0 350 / 171013.1 5.4 0.5-5.9-7.3-0.6
2014-Apr-20 11:00N 60°24' W 177°42'0 0.0 350 / 171012.9 -5.7-7.1-0.5
2014-Apr-20 10:00N 60°24' W 177°42'0 0.0 010 / 181012.5 -5.7-7.1-0.7
2014-Apr-20 07:00N 60°24' W 177°42'0 0.0 350 / 221011.1 -5.2-6.8-1.0
2014-Apr-20 05:00N 60°24' W 177°42'7 6.7 010 / 221009.8 -4.3-5.6-1.2
2014-Apr-20 04:00N 60°30' W 177°36'0 0.0 010 / 221009.1 -3.7-5.1-1.2
2014-Apr-20 03:00N 60°30' W 177°36'7 6.7 010 / 171008.6 2.2 0.5-3.5-4.8-1.2
2014-Apr-20 02:00N 60°24' W 177°30'3 1.5 010 / 221007.9 -3.4-5.0-1.3
2014-Apr-20 00:00N 60°24' W 177°24'7 6.7 350 / 191007.5 2.2 -3.5-4.9-1.3
2014-Apr-19 23:00N 60°18' W 177°18'3 3.0 1007.1 -3.6-5.1-1.2
2014-Apr-19 22:00N 60°18' W 177°24'6 6.0 360 / 171006.8 -3.7-5.0-0.7
2014-Apr-19 21:00N 60°12' W 177°24'3 3.0 010 / 191006.0 -3.7-5.0-0.6
2014-Apr-19 20:00N 60°12' W 177°18'0 0.0 1005.8 -3.6-4.8-0.6
2014-Apr-19 19:00N 60°12' W 177°18'6 6.0 340 / 181005.5 -4.0-5.1-0.7
2014-Apr-19 18:00N 60°18' W 177°18'8 4.2 350 / 171005.1 -4.0-5.1-0.6
2014-Apr-19 16:00N 60°12' W 177°06'7 1.7 1004.4 -4.1-5.2-1.1
2014-Apr-19 12:00N 60°18' W 177°00'0 0.0 1003.8 5.4 0.5-4.5-5.3-1.2
2014-Apr-19 10:00N 60°18' W 177°00'0 0.0 350 / 131003.8 -4.8-5.9-1.2
2014-Apr-19 09:00N 60°18' W 177°00'7 3.3 010 / 141003.4 -5.4-6.5-1.2
2014-Apr-19 07:00N 60°24' W 176°54'3 1.5 1002.8 -5.2-6.4-1.4
2014-Apr-19 05:00N 60°24' W 177°00'7 6.7 350 / 131002.5 -5.0-6.3-1.4
2014-Apr-19 04:00N 60°30' W 176°54'3 3.0 350 / 71002.1 -5.7-6.6-1.6
2014-Apr-19 03:00N 60°30' W 176°48'3 3.0 350 / 141002.1 5.4 0.5-5.5 -1.6
2014-Apr-19 02:00N 60°30' W 176°54'0 0.0 340 / 151001.9 -6.0-6.7-1.4
2014-Apr-19 01:00N 60°30' W 176°54'0 0.0 350 / 121001.9 -6.1-6.8-1.4
2014-Apr-19 00:00N 60°30' W 176°54'6 6.0 330 / 131002.1 -6.7-7.3-1.4
2014-Apr-18 23:00N 60°36' W 176°54'3 1.0 340 / 121001.9 -6.2-6.8-1.6
2014-Apr-18 20:00N 60°36' W 176°48'6 2.9 1001.4 -7.6-8.4-1.7
2014-Apr-18 18:00N 60°36' W 176°36'3 2.9 330 / 121001.3 -7.6-8.4-1.7
2014-Apr-18 17:00N 60°36' W 176°42'0 0.0 350 / 131001.3 -7.5-8.3-1.6
2014-Apr-18 16:00N 60°36' W 176°42'7 6.7 340 / 141001.4 -7.2-7.9-1.6
2014-Apr-18 15:00N 60°30' W 176°36'7 3.3 340 / 131001.1 5.4 -6.7-7.3-1.6
2014-Apr-18 13:00N 60°36' W 176°42'0 0.0 350 / 161001.4 -6.6-7.4-1.6
2014-Apr-18 11:00N 60°36' W 176°42'0 0.0 010 / 161001.7 -5.7-6.5-1.5
2014-Apr-18 10:00N 60°36' W 176°42'0 0.0 010 / 161001.8 -5.2-6.3-1.4
2014-Apr-18 09:00N 60°36' W 176°42'0 0.0 350 / 171001.9 -4.8-5.9-1.4
2014-Apr-18 07:00N 60°36' W 176°42'3 2.9 020 / 171001.9 -4.4-5.6-1.4
2014-Apr-18 06:00N 60°36' W 176°48'0 0.0 010 / 161002.1 -4.0-5.3-1.6
2014-Apr-18 04:00N 60°36' W 176°48'3 1.0 1002.2 -3.3-4.6-1.6
2014-Apr-18 01:00N 60°36' W 176°54'0 0.0 030 / 161003.4 -2.5-4.3-1.6
2014-Apr-17 23:00N 60°36' W 176°54'3 2.9 020 / 201004.2 -2.8-4.7-1.6
2014-Apr-17 22:00N 60°36' W 177°00'0 0.0 030 / 191004.5 -2.7-4.4-1.6
2014-Apr-17 21:00N 60°36' W 177°00'0 0.0 030 / 261004.1 -3.5-4.9-1.6
2014-Apr-17 20:00N 60°36' W 177°00'0 0.0 040 / 231004.5 -4.0-4.8-1.6
2014-Apr-17 19:00N 60°36' W 177°00'3 1.5 040 / 221005.0 -3.9-4.9-1.6
2014-Apr-17 17:00N 60°36' W 176°54'0 0.0 030 / 201005.3 -2.8-3.9-1.4
2014-Apr-17 15:00N 60°36' W 176°54'0 0.0 030 / 171005.7 -3.0-3.6-1.4
2014-Apr-17 14:00N 60°36' W 176°54'0 0.0 040 / 181005.9 -2.9-3.4-1.6
2014-Apr-17 13:00N 60°36' W 176°54'3 2.9 030 / 171006.3 -1.6-2.1-1.6
2014-Apr-17 12:00N 60°36' W 176°48'7 6.7 020 / 181006.8 5.4 -0.0-1.3-1.4
2014-Apr-17 11:00N 60°42' W 176°54'3 2.9 030 / 141007.1 -1.9-2.3-1.4
2014-Apr-17 10:00N 60°42' W 176°48'6 6.0 040 / 131007.3 -1.1-1.4-1.6
2014-Apr-17 09:00N 60°36' W 176°48'7 2.2 040 / 131007.6 5.435.0-0.0-2.8-1.4
2014-Apr-17 06:00N 60°42' W 176°54'0 0.0 040 / 151007.3 -1.4-1.7-1.4
2014-Apr-17 05:00N 60°42' W 176°54'7 6.7 050 / 121007.4 -1.3-1.6-1.6
2014-Apr-17 04:00N 60°36' W 177°00'7 6.7 040 / 131007.3 -1.2-1.5-1.6
2014-Apr-17 03:00N 60°30' W 176°54'0 0.0 050 / 121007.2 5.4 0.5 0.2-0.8-1.6
2014-Apr-17 01:00N 60°30' W 176°54'7 6.7 050 / 131006.8 -1.1-1.4-1.5
2014-Apr-17 00:00N 60°24' W 176°48'7 3.3 050 / 121006.8 0.3 3.0 0.6-1.5
2014-Apr-16 22:00N 60°30' W 176°42'0 0.0 060 / 131006.6 -0.9-1.2-1.6
2014-Apr-16 20:00N 60°30' W 176°42'0 0.0 060 / 131005.8 -1.1-1.4-1.6
2014-Apr-16 19:00N 60°30' W 176°42'3 3.0 070 / 151005.2 -1.2-1.4-1.4
2014-Apr-16 18:00N 60°30' W 176°36'0 0.0 070 / 161004.7 -1.2-1.5-1.4
2014-Apr-16 17:00N 60°30' W 176°36'0 0.0 060 / 181004.2 -0.9-1.2-1.4
2014-Apr-16 16:00N 60°30' W 176°36'8 2.1 060 / 191003.6 -1.3-1.4-1.4
2014-Apr-16 12:00N 60°24' W 176°24'7 6.7 070 / 221001.8 2.2 0.5 0.5-0.7-1.6
2014-Apr-16 11:00N 60°30' W 176°30'3 3.0 060 / 181001.4 -1.1-1.4-1.4
2014-Apr-16 10:00N 60°30' W 176°24'6 6.0 070 / 191001.0 -1.1-1.4-1.4
2014-Apr-16 09:00N 60°24' W 176°24'6 3.0 060 / 201000.6 2.235.0-0.9-1.2-1.4
2014-Apr-16 07:00N 60°30' W 176°24'3 0.7 060 / 20999.8 -0.8-1.3-1.4
2014-Apr-16 03:00N 60°30' W 176°18'7 6.7 080 / 14998.4 -0.3-1.0-1.6
2014-Apr-16 02:00N 60°24' W 176°12'0 0.0 080 / 20997.9 -0.4-1.1-1.7
2014-Apr-16 01:00N 60°24' W 176°12'3 3.0 090 / 21997.6 -0.3-1.0-1.6
2014-Apr-16 00:00N 60°24' W 176°06'0 0.0 090 / 21997.5 -0.3-1.0-1.6
2014-Apr-15 22:00N 60°24' W 176°06'3 3.0 080 / 19997.5 -0.5-0.9-1.6
2014-Apr-15 21:00N 60°24' W 176°00'6 3.0 070 / 18997.4 -0.6-1.0-1.6
2014-Apr-15 19:00N 60°18' W 176°00'6 3.0 090 / 21997.4 -1.4-2.0-1.6
2014-Apr-15 17:00N 60°12' W 176°00'0 0.0 080 / 25997.0 -1.6-2.4-1.6
2014-Apr-15 16:00N 60°12' W 176°00'3 3.0 070 / 21997.6 -1.6-2.4-1.4
2014-Apr-15 15:00N 60°12' W 176°06'6 6.0 080 / 24997.9 -1.9-3.0-1.3
2014-Apr-15 14:00N 60°12' W 176°18'16 3.2 080 / 24998.1 -1.9-3.3-1.4
2014-Apr-15 09:00N 60°18' W 176°48'6 5.9 100 / 20998.1 5.4 0.5-0.7-1.5-1.4
2014-Apr-15 08:00N 60°18' W 177°00'6 6.0 100 / 20998.4 -0.6-1.3-1.4
2014-Apr-15 07:00N 60°24' W 177°00'0 0.0 100 / 22997.8 -0.7-1.4-1.5
2014-Apr-15 06:00N 60°24' W 177°00'0 0.0 110 / 22997.9 -0.6-1.4-1.4
2014-Apr-15 05:00N 60°24' W 177°00'0 0.0 100 / 20997.6 -0.2-1.0-1.3
2014-Apr-15 04:00N 60°24' W 177°00'0 0.0 100 / 17997.8 -0.2-1.0-1.4
2014-Apr-15 02:00N 60°24' W 177°00'0 0.0 110 / 19997.7 -0.0-1.1-1.4
2014-Apr-15 00:00N 60°24' W 177°00'8 4.2 100 / 16998.3 1.0 0.1-1.4
2014-Apr-14 22:00N 60°18' W 177°12'7 6.7 130 / 13997.9 -0.1-0.9-1.3
2014-Apr-14 21:00N 60°12' W 177°18'7 3.3 140 / 12997.7 5.435.0 2.3 0.4-1.2
2014-Apr-14 19:00N 60°18' W 177°24'7 2.2 140 / 12996.6 0.2-0.5-1.4
2014-Apr-14 16:00N 60°12' W 177°30'7 3.4 150 / 16995.0 0.4-0.5-0.2
2014-Apr-14 14:00N 60°06' W 177°24'0 0.0 130 / 11994.5 0.4-0.6-0.2
2014-Apr-14 12:00N 60°06' W 177°24'0 0.0 140 / 10994.2 0.1-0.7-0.2
2014-Apr-14 11:00N 60°06' W 177°24'6 3.0 150 / 13993.9 0.2-0.5-0.3
2014-Apr-14 09:00N 60°06' W 177°12'7 2.2 150 / 14993.4 -0.0-0.9-0.6
2014-Apr-14 06:00N 60°12' W 177°06'3 3.0 130 / 16992.4 -0.0-1.1-1.1
2014-Apr-14 05:00N 60°12' W 177°00'0 0.0 120 / 16991.9 0.2-1.1-1.4
2014-Apr-14 04:00N 60°12' W 177°00'0 0.0 140 / 17991.6 0.2-1.1-1.4
2014-Apr-14 03:00N 60°12' W 177°00'7 3.3 130 / 18991.4 0.1-1.2-1.2
2014-Apr-14 01:00N 60°18' W 176°54'0 0.0 140 / 6991.2 0.4-1.0-1.2
2014-Apr-14 00:00N 60°18' W 176°54'   140 / 18990.8 0.5-0.8-1.2

Dump ship's entire track history

sailing weather and tide predictions

Oscar Dyson — WTEP — position and weather